Accueil
METAR-TAF:

METAR-TAF

Aéroports :

Henderson City-County Airport

Henderson, Kentucky, États-Unis

latitude: 37-49N, longitude: 087-41W, altitude: 117 m

Observation

Le bulletin a été fait il y a 9 minutes, à 16:56 UTC
Vent 3 kt de direction variable
Température 4°C
Humidité 56%
Pression 1026 hPa
Visibilité: 16.1 km
Ciel clair

METAR: KEHR 141656Z AUTO VRB03KT 10SM CLR 04/M04 A3029 RMK AO2 SLP261 T00441039

Heure: 11:05 (17:05 UTC)


TAF: absent

Observations et prévisions météorologiques de plus de 4000 aéroports (messages METAR et TAF).

Les stations disponibles sont représentées par des disques jaunes et rouges sur la carte.

Passer la souris dessus pour voir le nom de la station.

Cliquer dessus pour voir les observations et prévisions météorologiques.

Pour changer de carte: cliquez sur les boutons verts avec une croix noire pour zoomer, sur le bouton vert avec un tiret pour effectuer un zoom arrière, ou sur les flèches vertes pour les cartes adjacentes.


METAR-TAF: